createdAt,value
2022-08-30T00:01:46.866Z,93.76
2022-08-30T00:04:54.934Z,93.86
2022-08-30T00:08:02.217Z,93.96
2022-08-30T00:11:09.998Z,94.21
2022-08-30T00:14:18.269Z,94.21
2022-08-30T00:17:26.067Z,94.71
2022-08-30T00:20:33.571Z,94.82
2022-08-30T00:23:41.283Z,94.82
2022-08-30T00:26:49.111Z,94.71
2022-08-30T00:29:50.982Z,94.61
2022-08-30T00:32:58.511Z,94.61
2022-08-30T00:36:06.165Z,94.71
2022-08-30T00:39:14.285Z,95.02
2022-08-30T00:42:21.777Z,95.22
2022-08-30T00:45:29.415Z,95.22
2022-08-30T00:48:36.597Z,94.92
2022-08-30T00:51:46.658Z,94.82
2022-08-30T00:54:54.260Z,94.96
2022-08-30T00:58:01.912Z,95.17
2022-08-30T01:01:12.218Z,95.06
2022-08-30T01:04:19.921Z,94.96
2022-08-30T01:07:27.630Z,94.56
2022-08-30T01:10:36.233Z,94.82
2022-08-30T01:13:43.521Z,94.86
2022-08-30T01:16:51.634Z,94.76
2022-08-30T01:19:59.676Z,94.61
2022-08-30T01:23:06.941Z,94.71
2022-08-30T01:26:14.637Z,94.61
2022-08-30T01:29:23.627Z,94.51
2022-08-30T01:32:31.009Z,94.57
2022-08-30T01:35:39.301Z,94.46
2022-08-30T01:38:47.260Z,94.46
2022-08-30T01:41:55.073Z,93.91
2022-08-30T01:45:03.330Z,93.71
2022-08-30T01:48:11.167Z,93.91
2022-08-30T01:51:20.384Z,93.97
2022-08-30T01:54:33.305Z,94.07
2022-08-30T01:57:33.116Z,93.93
2022-08-30T02:00:41.005Z,93.83
2022-08-30T02:03:49.332Z,93.83
2022-08-30T02:06:56.759Z,94.03
2022-08-30T02:10:04.979Z,94.54
2022-08-30T02:13:12.928Z,95.45
2022-08-30T02:16:20.870Z,95.75
2022-08-30T02:19:29.199Z,95.55
2022-08-30T02:22:37.021Z,95.25
2022-08-30T02:25:44.964Z,95.10
2022-08-30T02:28:53.295Z,95.00
2022-08-30T02:32:00.803Z,95.00
2022-08-30T02:35:09.033Z,94.90
2022-08-30T02:38:16.767Z,94.59
2022-08-30T02:41:27.889Z,94.39
2022-08-30T02:44:35.411Z,94.39
2022-08-30T02:47:46.801Z,94.39
2022-08-30T02:50:44.022Z,94.34
2022-08-30T02:53:51.952Z,94.54
2022-08-30T02:56:59.522Z,94.64
2022-08-30T03:00:07.123Z,94.49
2022-08-30T03:03:15.221Z,94.19
2022-08-30T03:06:22.394Z,94.03
2022-08-30T03:09:30.457Z,94.03
2022-08-30T03:12:38.208Z,93.93
2022-08-30T03:15:46.273Z,94.13
2022-08-30T03:18:53.898Z,94.27
2022-08-30T03:22:01.440Z,94.83
2022-08-30T03:25:09.110Z,95.13
2022-08-30T03:28:16.742Z,95.48
2022-08-30T03:31:24.363Z,95.68
2022-08-30T03:34:31.900Z,95.89
2022-08-30T03:37:39.606Z,96.19
2022-08-30T03:40:47.387Z,96.60
2022-08-30T03:43:59.930Z,96.90
2022-08-30T03:46:57.102Z,97.41
2022-08-30T03:50:05.018Z,97.86
2022-08-30T03:53:12.558Z,98.16
2022-08-30T03:56:20.003Z,98.47
2022-08-30T03:59:28.057Z,98.77
2022-08-30T04:02:35.607Z,98.97
2022-08-30T04:05:43.231Z,99.28
2022-08-30T04:08:50.923Z,99.38
2022-08-30T04:11:58.062Z,99.69
2022-08-30T04:15:06.050Z,99.79
2022-08-30T04:18:14.054Z,99.69
2022-08-30T04:21:21.256Z,99.64
2022-08-30T04:24:29.304Z,99.33
2022-08-30T04:27:37.457Z,99.04
2022-08-30T04:30:44.835Z,98.73
2022-08-30T04:33:52.929Z,98.73
2022-08-30T04:37:00.678Z,98.48
2022-08-30T04:40:08.219Z,97.81
2022-08-30T04:43:16.406Z,97.41
2022-08-30T04:46:24.170Z,97.51
2022-08-30T04:49:31.850Z,97.71
2022-08-30T04:52:39.473Z,97.61
2022-08-30T04:55:46.994Z,97.76
2022-08-30T04:58:54.737Z,97.86
2022-08-30T05:02:02.805Z,97.81
2022-08-30T05:05:10.067Z,97.71
2022-08-30T05:08:22.054Z,97.71
2022-08-30T05:11:21.258Z,97.71
2022-08-30T05:14:29.049Z,97.61
2022-08-30T05:17:37.021Z,97.71
2022-08-30T05:20:44.661Z,97.92
2022-08-30T05:23:52.151Z,97.51
2022-08-30T05:27:00.153Z,97.56
2022-08-30T05:30:07.653Z,97.61
2022-08-30T05:33:15.154Z,97.71
2022-08-30T05:36:22.794Z,97.51
2022-08-30T05:39:50.836Z,97.20
2022-08-30T05:42:35.494Z,97.11
2022-08-30T05:45:43.037Z,96.96
2022-08-30T05:48:51.150Z,96.75
2022-08-30T05:51:58.790Z,96.75
2022-08-30T05:55:06.439Z,96.35
2022-08-30T05:58:14.240Z,96.10
2022-08-30T06:01:21.448Z,95.70
2022-08-30T06:04:29.543Z,95.79
2022-08-30T06:07:37.143Z,96.00
2022-08-30T06:10:44.500Z,96.20
2022-08-30T06:13:52.566Z,96.20
2022-08-30T06:17:00.336Z,95.90
2022-08-30T06:20:07.694Z,95.90
2022-08-30T06:23:15.798Z,96.20
2022-08-30T06:26:26.352Z,96.15
2022-08-30T06:29:33.920Z,95.65
2022-08-30T06:32:44.725Z,95.20
2022-08-30T06:35:58.707Z,95.20
2022-08-30T06:38:56.691Z,95.00
2022-08-30T06:42:04.294Z,94.95
2022-08-30T06:45:12.014Z,94.35
2022-08-30T06:48:19.837Z,94.14
2022-08-30T06:51:27.405Z,93.84
2022-08-30T06:54:35.027Z,94.04
2022-08-30T06:57:43.079Z,94.00
2022-08-30T07:00:50.277Z,93.55
2022-08-30T07:03:58.469Z,92.64
2022-08-30T07:07:06.420Z,92.54
2022-08-30T07:10:13.819Z,92.80
2022-08-30T07:13:22.157Z,91.03
2022-08-30T07:16:30.003Z,90.63
2022-08-30T07:19:37.523Z,89.88
2022-08-30T07:22:45.732Z,89.23
2022-08-30T07:25:53.326Z,88.18
2022-08-30T07:29:01.457Z,87.07
2022-08-30T07:32:09.857Z,87.38
2022-08-30T07:35:17.227Z,87.23
2022-08-30T07:38:25.261Z,86.83
2022-08-30T07:41:34.114Z,86.49
2022-08-30T07:44:41.581Z,85.68
2022-08-30T07:47:49.793Z,85.78
2022-08-30T07:51:00.769Z,86.63
2022-08-30T07:53:59.945Z,86.63
2022-08-30T07:57:07.974Z,86.53
2022-08-30T08:00:15.566Z,86.08
2022-08-30T08:03:23.228Z,85.98
2022-08-30T08:06:34.974Z,84.89
2022-08-30T08:09:32.230Z,82.70
2022-08-30T08:12:39.901Z,82.06
2022-08-30T08:15:47.599Z,80.35
2022-08-30T08:18:55.514Z,78.60
2022-08-30T08:22:19.917Z,77.50
2022-08-30T08:25:08.144Z,77.73
2022-08-30T08:28:15.884Z,79.38
2022-08-30T08:31:27.060Z,80.02
2022-08-30T08:34:24.375Z,80.93
2022-08-30T08:37:31.877Z,80.93
2022-08-30T08:40:39.628Z,80.73
2022-08-30T08:43:47.718Z,81.23
2022-08-30T08:46:55.251Z,79.82
2022-08-30T08:50:04.010Z,79.99
2022-08-30T08:53:24.882Z,79.44
2022-08-30T08:56:16.858Z,78.47
2022-08-30T08:59:24.946Z,79.28
2022-08-30T09:02:34.491Z,78.64
2022-08-30T09:05:41.809Z,77.03
2022-08-30T09:08:49.699Z,76.93
2022-08-30T09:11:57.030Z,76.59
2022-08-30T09:15:05.112Z,76.19
2022-08-30T09:18:19.255Z,75.38
2022-08-30T09:21:16.384Z,75.49
2022-08-30T09:24:26.150Z,74.74
2022-08-30T09:27:34.426Z,74.31
2022-08-30T09:30:41.669Z,72.97
2022-08-30T09:33:49.769Z,72.83
2022-08-30T09:36:57.339Z,72.53
2022-08-30T09:40:05.002Z,72.67
2022-08-30T09:43:14.380Z,72.47
2022-08-30T09:46:22.488Z,70.86
2022-08-30T09:49:30.245Z,69.56
2022-08-30T09:52:38.012Z,70.26
2022-08-30T09:55:45.706Z,68.82
2022-08-30T09:58:53.409Z,69.02
2022-08-30T10:02:01.068Z,68.49
2022-08-30T10:05:08.625Z,66.99
2022-08-30T10:08:16.788Z,68.46
2022-08-30T10:11:24.391Z,69.16
2022-08-30T10:14:32.015Z,68.52
2022-08-30T10:17:39.642Z,68.12
2022-08-30T10:20:47.894Z,68.73
2022-08-30T10:23:55.976Z,68.73
2022-08-30T10:27:03.507Z,68.02
2022-08-30T10:30:13.324Z,68.22
2022-08-30T10:33:20.699Z,66.99
2022-08-30T10:36:29.129Z,67.25
2022-08-30T10:39:37.351Z,68.26
2022-08-30T10:42:44.641Z,68.12
2022-08-30T10:45:52.694Z,67.32
2022-08-30T10:48:59.823Z,66.82
2022-08-30T10:52:07.835Z,66.75
2022-08-30T10:55:16.463Z,65.22
2022-08-30T10:58:23.688Z,64.49
2022-08-30T11:01:31.955Z,63.93
2022-08-30T11:04:39.727Z,61.25
2022-08-30T11:07:41.211Z,60.39
2022-08-30T11:10:49.859Z,59.36
2022-08-30T11:14:00.264Z,57.77
2022-08-30T11:17:00.977Z,58.57
2022-08-30T11:20:08.565Z,58.50
2022-08-30T11:23:16.998Z,59.25
2022-08-30T11:26:24.939Z,60.68
2022-08-30T11:29:34.279Z,60.11
2022-08-30T11:32:42.790Z,61.09
2022-08-30T11:35:50.613Z,62.02
2022-08-30T11:38:58.681Z,60.79
2022-08-30T11:42:06.464Z,59.27
2022-08-30T11:45:16.479Z,59.34
2022-08-30T11:48:24.385Z,59.21
2022-08-30T11:51:32.085Z,58.08
2022-08-30T11:54:40.080Z,57.93
2022-08-30T11:57:47.329Z,53.69
2022-08-30T12:00:57.422Z,53.84
2022-08-30T12:04:05.151Z,54.06
2022-08-30T12:07:12.453Z,56.03
2022-08-30T12:10:20.105Z,53.29
2022-08-30T12:13:27.875Z,52.44
2022-08-30T12:16:28.974Z,50.40
2022-08-30T12:19:36.537Z,50.50
2022-08-30T12:22:38.279Z,51.52
2022-08-30T12:25:46.310Z,52.47
2022-08-30T12:28:54.008Z,52.27
2022-08-30T12:32:03.448Z,51.45
2022-08-30T12:35:02.263Z,50.90
2022-08-30T12:38:10.871Z,50.20
2022-08-30T12:41:18.964Z,49.26
2022-08-30T12:44:26.558Z,48.02
2022-08-30T12:47:34.119Z,48.22
2022-08-30T12:50:42.530Z,49.11
2022-08-30T12:53:51.473Z,48.35
2022-08-30T12:57:14.074Z,47.95
2022-08-30T13:00:04.309Z,48.07
2022-08-30T13:03:16.301Z,48.49
2022-08-30T13:06:14.227Z,49.51
2022-08-30T13:09:21.848Z,50.43
2022-08-30T13:12:30.307Z,50.35
2022-08-30T13:15:38.450Z,51.17
2022-08-30T13:18:45.671Z,49.88
2022-08-30T13:21:53.601Z,49.88
2022-08-30T13:25:01.559Z,50.78
2022-08-30T13:28:08.785Z,49.85
2022-08-30T13:31:16.845Z,48.44
2022-08-30T13:34:24.345Z,49.21
2022-08-30T13:37:50.784Z,48.94
2022-08-30T13:40:37.740Z,49.23
2022-08-30T13:46:54.698Z,48.71
2022-08-30T13:49:52.004Z,47.57
2022-08-30T13:52:59.654Z,46.34
2022-08-30T13:56:07.735Z,45.72
2022-08-30T13:59:10.882Z,45.50
2022-08-30T14:02:18.587Z,45.40
2022-08-30T14:08:48.110Z,43.87
2022-08-30T14:11:37.232Z,44.45
2022-08-30T14:14:45.614Z,44.45
2022-08-30T14:17:54.024Z,45.06
2022-08-30T14:21:02.004Z,45.56
2022-08-30T14:24:10.717Z,45.68
2022-08-30T14:27:18.940Z,46.79
2022-08-30T14:30:21.178Z,48.22
2022-08-30T14:33:29.952Z,47.87
2022-08-30T14:36:38.135Z,48.29
2022-08-30T14:39:47.624Z,48.79
2022-08-30T14:42:56.159Z,48.66
2022-08-30T14:46:04.008Z,48.77
2022-08-30T14:49:12.768Z,47.57
2022-08-30T14:52:21.019Z,47.99
2022-08-30T14:55:29.041Z,48.49
2022-08-30T14:58:38.001Z,49.51
2022-08-30T15:01:46.285Z,48.59
2022-08-30T15:04:54.133Z,48.69
2022-08-30T15:08:02.636Z,46.90
2022-08-30T15:11:10.476Z,47.70
2022-08-30T15:14:19.218Z,48.41
2022-08-30T15:17:27.962Z,48.44
2022-08-30T15:20:36.525Z,48.34
2022-08-30T15:23:44.796Z,47.74
2022-08-30T15:26:53.477Z,48.32
2022-08-30T15:30:01.205Z,47.02
2022-08-30T15:33:09.395Z,48.32
2022-08-30T15:36:16.648Z,46.83
2022-08-30T15:39:25.998Z,46.42
2022-08-30T15:42:34.209Z,46.33
2022-08-30T15:45:42.229Z,45.63
2022-08-30T15:48:51.291Z,45.43
2022-08-30T15:51:59.491Z,46.23
2022-08-30T15:55:06.743Z,48.22
2022-08-30T15:58:14.398Z,49.49
2022-08-30T16:01:30.339Z,50.70
2022-08-30T16:04:27.048Z,50.90
2022-08-30T16:07:39.903Z,51.32
2022-08-30T16:10:37.264Z,51.52
2022-08-30T16:13:49.125Z,51.75
2022-08-30T16:16:47.533Z,52.37
2022-08-30T16:19:58.564Z,53.16
2022-08-30T16:22:55.745Z,52.69
2022-08-30T16:26:04.467Z,54.11
2022-08-30T16:29:12.553Z,54.41
2022-08-30T16:32:20.199Z,54.94
2022-08-30T16:35:28.050Z,56.23
2022-08-30T16:38:37.122Z,58.28
2022-08-30T16:41:44.951Z,59.64
2022-08-30T16:44:52.644Z,60.36
2022-08-30T16:48:00.465Z,60.96
2022-08-30T16:51:08.774Z,61.07
2022-08-30T16:54:16.904Z,61.26
2022-08-30T16:57:24.508Z,61.59
2022-08-30T17:00:32.442Z,62.19
2022-08-30T17:03:40.587Z,62.42
2022-08-30T17:06:48.122Z,62.42
2022-08-30T17:09:56.964Z,62.62
2022-08-30T17:13:06.003Z,62.05
2022-08-30T17:16:13.440Z,62.05
2022-08-30T17:19:26.274Z,62.12
2022-08-30T17:22:24.597Z,61.75
2022-08-30T17:25:34.107Z,61.88
2022-08-30T17:28:41.969Z,62.18
2022-08-30T17:31:51.175Z,62.28
2022-08-30T17:34:59.066Z,62.58
2022-08-30T17:38:07.823Z,62.71
2022-08-30T17:41:17.764Z,62.92
2022-08-30T17:44:21.985Z,63.21
2022-08-30T17:47:23.089Z,63.75
2022-08-30T17:50:33.302Z,63.64
2022-08-30T17:53:41.338Z,63.45
2022-08-30T17:56:49.258Z,63.75
2022-08-30T17:59:56.550Z,63.87
2022-08-30T18:03:04.615Z,63.98
2022-08-30T18:06:13.273Z,64.48
2022-08-30T18:09:21.440Z,64.81
2022-08-30T18:12:29.483Z,65.41
2022-08-30T18:15:30.188Z,65.54
2022-08-30T18:18:38.257Z,65.64
2022-08-30T18:21:46.338Z,65.88
2022-08-30T18:24:53.647Z,65.77
2022-08-30T18:28:01.800Z,65.97
2022-08-30T18:31:10.162Z,66.31
2022-08-30T18:34:17.833Z,66.41
2022-08-30T18:37:25.644Z,66.31
2022-08-30T18:40:32.883Z,66.31
2022-08-30T18:43:42.544Z,66.31
2022-08-30T18:46:55.779Z,66.64
2022-08-30T18:49:53.039Z,66.84
2022-08-30T18:53:01.158Z,66.74
2022-08-30T18:56:09.341Z,67.04
2022-08-30T18:59:17.120Z,66.74
2022-08-30T19:02:27.835Z,67.18
2022-08-30T19:05:24.903Z,67.27
2022-08-30T19:08:32.624Z,67.47
2022-08-30T19:11:41.306Z,67.58
2022-08-30T19:14:48.988Z,67.81
2022-08-30T19:17:56.655Z,68.01
2022-08-30T19:21:04.580Z,68.11
2022-08-30T19:24:12.351Z,68.35
2022-08-30T19:27:13.308Z,68.24
2022-08-30T19:30:23.143Z,68.15
2022-08-30T19:33:21.923Z,68.35
2022-08-30T19:36:29.693Z,68.55
2022-08-30T19:39:37.625Z,68.88
2022-08-30T19:42:46.497Z,69.09
2022-08-30T19:45:54.284Z,69.29
2022-08-30T19:49:02.389Z,69.29
2022-08-30T19:52:09.992Z,69.38
2022-08-30T19:55:17.446Z,69.69
2022-08-30T19:58:20.139Z,69.79
2022-08-30T20:01:32.507Z,69.79
2022-08-30T20:04:30.254Z,70.12
2022-08-30T20:07:37.931Z,70.32
2022-08-30T20:10:45.295Z,70.53
2022-08-30T20:13:53.355Z,70.62
2022-08-30T20:17:02.194Z,70.93
2022-08-30T20:20:09.798Z,70.93
2022-08-30T20:23:21.498Z,71.13
2022-08-30T20:26:21.420Z,71.13
2022-08-30T20:29:26.372Z,71.23
2022-08-30T20:32:34.452Z,71.33
2022-08-30T20:35:45.486Z,71.23
2022-08-30T20:38:45.543Z,71.23
2022-08-30T20:41:53.486Z,71.33
2022-08-30T20:45:00.782Z,71.33
2022-08-30T20:48:08.646Z,71.33
2022-08-30T20:51:16.340Z,71.33
2022-08-30T20:54:23.554Z,71.33
2022-08-30T20:57:30.852Z,71.84
2022-08-30T21:00:38.577Z,71.94
2022-08-30T21:03:46.483Z,71.73
2022-08-30T21:06:54.452Z,71.84
2022-08-30T21:10:01.993Z,71.84
2022-08-30T21:13:09.584Z,71.94
2022-08-30T21:16:17.113Z,71.94
2022-08-30T21:19:19.086Z,71.94
2022-08-30T21:22:26.747Z,71.73
2022-08-30T21:25:34.420Z,71.70
2022-08-30T21:28:42.039Z,71.44
2022-08-30T21:31:49.599Z,71.50
2022-08-30T21:34:57.191Z,71.30
2022-08-30T21:38:04.692Z,71.30
2022-08-30T21:41:12.455Z,71.00
2022-08-30T21:44:20.522Z,71.60
2022-08-30T21:47:28.142Z,71.94
2022-08-30T21:50:35.296Z,72.24
2022-08-30T21:53:43.055Z,72.88
2022-08-30T21:56:50.313Z,73.79
2022-08-30T21:59:57.765Z,74.32
2022-08-30T22:03:05.692Z,74.93
2022-08-30T22:06:12.941Z,75.27
2022-08-30T22:09:20.743Z,75.27
2022-08-30T22:12:28.778Z,76.07
2022-08-30T22:15:36.458Z,76.38
2022-08-30T22:18:46.315Z,75.77
2022-08-30T22:22:01.271Z,76.07
2022-08-30T22:24:58.781Z,76.18
2022-08-30T22:28:07.488Z,76.07
2022-08-30T22:31:15.749Z,76.72
2022-08-30T22:34:24.072Z,76.72
2022-08-30T22:37:32.584Z,76.72
2022-08-30T22:40:40.365Z,76.21
2022-08-30T22:43:48.753Z,75.91
2022-08-30T22:46:57.217Z,75.71
2022-08-30T22:50:04.769Z,75.91
2022-08-30T22:53:13.422Z,76.01
2022-08-30T22:56:21.249Z,76.31
2022-08-30T22:59:32.101Z,77.06
2022-08-30T23:02:29.901Z,76.86
2022-08-30T23:05:38.216Z,76.75
2022-08-30T23:08:46.730Z,77.29
2022-08-30T23:11:56.012Z,77.80
2022-08-30T23:15:04.382Z,78.00
2022-08-30T23:18:13.233Z,77.90
2022-08-30T23:21:22.074Z,77.50
2022-08-30T23:24:31.096Z,77.60
2022-08-30T23:27:40.375Z,77.50
2022-08-30T23:30:49.517Z,77.39
2022-08-30T23:33:58.667Z,77.70
2022-08-30T23:37:07.816Z,77.70
2022-08-30T23:40:16.693Z,77.70
2022-08-30T23:43:25.361Z,77.19
2022-08-30T23:46:34.264Z,76.89
2022-08-30T23:49:42.677Z,76.39
2022-08-30T23:52:50.526Z,75.88
2022-08-30T23:55:58.895Z,76.08
2022-08-30T23:59:07.004Z,76.18
